Time;durP1;ratioP1;P1;durP2;ratioP2;P2;SDS_P1;SDS_P2;PMS_P1;PMS_P2;Temp;Humidity;BMP_temperature;BMP_pressure;BME280_temperature;BME280_humidity;BME280_pressure;Samples;Min_cycle;Max_cycle;Signal;HPM_P1;HPM_P2
2021/11/06 00:00:50;;;;;;;49.72;23.42;;;5.90;99.90;;;;;;5119581;27;20051;-70
2021/11/06 00:03:17;;;;;;;48.33;22.23;;;5.90;99.90;;;;;;5118081;27;20054;-71
2021/11/06 00:05:44;;;;;;;60.28;23.80;;;5.90;99.90;;;;;;5118286;27;20074;-69
2021/11/06 00:08:12;;;;;;;55.58;24.05;;;6.00;99.90;;;;;;5117951;27;20051;-70
2021/11/06 00:10:39;;;;;;;48.42;22.55;;;5.90;99.90;;;;;;5118485;27;20051;-70
2021/11/06 00:13:06;;;;;;;59.20;24.83;;;5.90;99.90;;;;;;5118271;27;20051;-69
2021/11/06 00:15:33;;;;;;;53.60;24.27;;;5.90;99.90;;;;;;5116656;27;20501;-70
2021/11/06 00:18:01;;;;;;;54.30;23.40;;;5.90;99.90;;;;;;5117932;27;20499;-70
2021/11/06 00:20:29;;;;;;;56.08;22.88;;;5.90;99.90;;;;;;5118644;27;20456;-75
2021/11/06 00:22:56;;;;;;;49.65;22.83;;;5.90;99.90;;;;;;5118480;27;20059;-69
2021/11/06 00:25:23;;;;;;;51.05;22.77;;;5.80;99.90;;;;;;5118183;27;20047;-72
2021/11/06 00:27:51;;;;;;;55.03;24.10;;;5.80;99.90;;;;;;5119032;27;20707;-69
2021/11/06 00:30:18;;;;;;;61.70;24.35;;;5.70;99.90;;;;;;5118703;27;20043;-69
2021/11/06 00:32:46;;;;;;;56.13;25.17;;;5.70;99.90;;;;;;5117164;27;20072;-70
2021/11/06 00:35:15;;;;;;;54.88;24.77;;;5.60;99.90;;;;;;5117308;27;20100;-69
2021/11/06 00:37:43;;;;;;;58.95;24.15;;;5.50;99.90;;;;;;5118114;27;20039;-69
2021/11/06 00:40:13;;;;;;;56.60;24.73;;;5.50;99.90;;;;;;5117642;27;20059;-69
2021/11/06 00:42:41;;;;;;;64.50;26.30;;;5.30;99.90;;;;;;5115851;27;20658;-69
2021/11/06 00:45:09;;;;;;;65.22;26.60;;;5.30;99.90;;;;;;5116932;27;20111;-69
2021/11/06 00:47:36;;;;;;;67.97;26.20;;;5.20;99.90;;;;;;5116102;27;20131;-69
2021/11/06 00:50:04;;;;;;;62.83;26.20;;;5.30;99.90;;;;;;5116602;27;20058;-69
2021/11/06 00:52:33;;;;;;;63.03;25.08;;;5.30;99.90;;;;;;5115826;27;20043;-69
2021/11/06 00:55:00;;;;;;;60.45;25.67;;;5.30;99.90;;;;;;5115812;27;20054;-70
2021/11/06 00:57:29;;;;;;;67.13;27.73;;;5.40;99.90;;;;;;5114889;27;20115;-70
2021/11/06 00:59:56;;;;;;;58.03;24.48;;;5.50;99.90;;;;;;5117115;27;20572;-69
2021/11/06 01:02:23;;;;;;;59.45;26.60;;;5.50;99.90;;;;;;5115770;27;20404;-72
2021/11/06 01:04:50;;;;;;;64.20;24.58;;;5.50;99.90;;;;;;5116226;27;20495;-70
2021/11/06 01:07:17;;;;;;;60.92;24.80;;;5.50;99.90;;;;;;5115068;27;20123;-69
2021/11/06 01:09:46;;;;;;;63.58;25.95;;;5.50;99.90;;;;;;5115328;27;20051;-70
2021/11/06 01:12:13;;;;;;;67.15;26.98;;;5.50;99.90;;;;;;5114990;27;20458;-70
2021/11/06 01:14:40;;;;;;;64.13;24.77;;;5.40;99.90;;;;;;5111342;27;20047;-69
2021/11/06 01:17:07;;;;;;;64.15;26.35;;;5.40;99.90;;;;;;5111086;27;20389;-69
2021/11/06 01:19:34;;;;;;;60.30;25.45;;;5.30;99.90;;;;;;5111234;27;20053;-70
2021/11/06 01:22:01;;;;;;;65.35;26.65;;;5.30;99.90;;;;;;5111392;27;20120;-70
2021/11/06 01:24:28;;;;;;;61.38;25.52;;;5.30;99.90;;;;;;5110631;27;20100;-69
2021/11/06 01:26:56;;;;;;;66.30;27.33;;;5.30;99.90;;;;;;5110493;27;20130;-70
2021/11/06 01:29:23;;;;;;;70.72;28.25;;;5.20;99.90;;;;;;5111555;27;20901;-69
2021/11/06 01:31:50;;;;;;;58.05;25.92;;;5.10;99.90;;;;;;5110298;27;20047;-68
2021/11/06 01:34:17;;;;;;;58.58;24.27;;;5.10;99.90;;;;;;5110910;27;20051;-69
2021/11/06 01:36:44;;;;;;;64.35;27.05;;;5.00;99.90;;;;;;5110329;27;20491;-69
2021/11/06 01:39:11;;;;;;;61.45;26.63;;;5.00;99.90;;;;;;5115981;27;20111;-68
2021/11/06 01:41:38;;;;;;;69.47;26.30;;;5.00;99.90;;;;;;5113785;27;20051;-69
2021/11/06 01:44:07;;;;;;;69.13;28.20;;;4.90;99.90;;;;;;5111163;27;20100;-68
2021/11/06 01:46:34;;;;;;;69.47;27.60;;;4.80;99.90;;;;;;5111432;27;20062;-69
2021/11/06 01:49:01;;;;;;;72.73;26.87;;;4.80;99.90;;;;;;5113330;27;20051;-69
2021/11/06 01:51:28;;;;;;;74.60;27.98;;;4.70;99.90;;;;;;5114886;27;20457;-70
2021/11/06 01:53:55;;;;;;;74.72;26.92;;;4.50;99.90;;;;;;5113183;27;20111;-70
2021/11/06 01:56:23;;;;;;;77.70;26.50;;;4.40;99.90;;;;;;5110613;27;20199;-70
2021/11/06 01:58:50;;;;;;;76.18;28.80;;;4.40;99.90;;;;;;5110567;27;20061;-70
2021/11/06 02:01:19;;;;;;;76.95;27.77;;;4.30;99.90;;;;;;5111977;27;20798;-70
2021/11/06 02:03:47;;;;;;;74.78;26.88;;;4.40;99.90;;;;;;5110738;27;20047;-70
2021/11/06 02:06:14;;;;;;;77.78;29.98;;;4.30;99.90;;;;;;5110539;27;20062;-69
2021/11/06 02:08:41;;;;;;;77.30;29.40;;;4.30;99.90;;;;;;5110237;27;20047;-69
2021/11/06 02:11:09;;;;;;;79.07;29.87;;;4.30;99.90;;;;;;5111662;27;20059;-69
2021/11/06 02:13:35;;;;;;;77.22;27.90;;;4.20;99.90;;;;;;5110418;27;20082;-72
2021/11/06 02:16:03;;;;;;;82.17;27.77;;;4.10;99.90;;;;;;5110526;27;20047;-68
2021/11/06 02:18:31;;;;;;;88.70;28.40;;;4.10;99.90;;;;;;5112165;27;20051;-69
2021/11/06 02:21:04;;;;;;;77.27;26.37;;;4.00;99.90;;;;;;5110444;27;20519;-70
2021/11/06 02:23:34;;;;;;;88.27;28.30;;;4.00;99.90;;;;;;5110650;27;20072;-69
2021/11/06 02:26:02;;;;;;;90.27;29.40;;;3.90;99.90;;;;;;5110553;27;20046;-73
2021/11/06 02:28:29;;;;;;;90.97;29.80;;;3.90;99.90;;;;;;5110761;27;20126;-69
2021/11/06 02:30:56;;;;;;;87.53;31.27;;;3.90;99.90;;;;;;5110154;27;20419;-69
2021/11/06 02:33:24;;;;;;;89.32;29.27;;;4.00;99.90;;;;;;5109942;27;20054;-69
2021/11/06 02:35:51;;;;;;;89.07;30.00;;;4.00;99.90;;;;;;5110341;27;20047;-69
2021/11/06 02:38:19;;;;;;;85.50;30.43;;;4.00;99.90;;;;;;5110920;28;20051;-68
2021/11/06 02:40:46;;;;;;;94.13;30.97;;;4.10;99.90;;;;;;5111400;28;20051;-68
2021/11/06 02:43:14;;;;;;;82.87;29.83;;;4.10;99.90;;;;;;5111316;28;20500;-69
2021/11/06 02:45:41;;;;;;;89.00;31.92;;;4.20;99.90;;;;;;5109497;28;20092;-68
2021/11/06 02:48:08;;;;;;;96.63;31.13;;;4.20;99.90;;;;;;5112023;28;20050;-69
2021/11/06 02:50:35;;;;;;;90.83;32.87;;;4.30;99.90;;;;;;5110507;28;20169;-68
2021/11/06 02:53:02;;;;;;;94.30;32.33;;;4.20;99.90;;;;;;5110570;28;20055;-68
2021/11/06 02:55:31;;;;;;;96.43;33.07;;;4.10;99.90;;;;;;5109730;27;20468;-68
2021/11/06 02:57:59;;;;;;;82.33;30.73;;;4.20;99.90;;;;;;5111790;28;20055;-68
2021/11/06 03:00:28;;;;;;;91.97;31.10;;;4.20;99.90;;;;;;5114987;28;20055;-69
2021/11/06 03:02:55;;;;;;;85.80;29.60;;;4.20;99.90;;;;;;5114872;28;20907;-68
2021/11/06 03:05:22;;;;;;;76.40;29.20;;;4.20;99.90;;;;;;5111155;28;20101;-68
2021/11/06 03:07:50;;;;;;;84.57;29.10;;;4.10;99.90;;;;;;5111303;28;20055;-68
2021/11/06 03:10:18;;;;;;;90.53;31.47;;;4.10;99.90;;;;;;5111183;28;20456;-68
2021/11/06 03:12:47;;;;;;;80.77;29.93;;;4.10;99.90;;;;;;5110357;28;20139;-74
2021/11/06 03:15:17;;;;;;;83.87;27.87;;;4.10;99.90;;;;;;5110309;28;20047;-68
2021/11/06 03:17:44;;;;;;;80.47;29.63;;;4.10;99.90;;;;;;5111950;28;20777;-68
2021/11/06 03:20:14;;;;;;;80.97;28.97;;;4.00;99.90;;;;;;5111785;28;20040;-68
2021/11/06 03:22:42;;;;;;;81.07;28.40;;;4.00;99.90;;;;;;5110960;28;20055;-68
2021/11/06 03:25:11;;;;;;;71.70;26.43;;;4.00;99.90;;;;;;5111670;27;20058;-68
2021/11/06 03:27:38;;;;;;;95.70;30.83;;;3.90;99.90;;;;;;5115916;27;20080;-73
2021/11/06 03:30:08;;;;;;;81.93;30.07;;;3.90;99.90;;;;;;5114975;27;20281;-70
2021/11/06 03:32:36;;;;;;;81.40;30.33;;;3.90;99.90;;;;;;5115144;27;20079;-68
2021/11/06 03:35:04;;;;;;;92.03;30.33;;;3.90;99.90;;;;;;5115119;27;20118;-70
2021/11/06 03:37:31;;;;;;;96.70;30.77;;;3.90;99.90;;;;;;5114235;27;20107;-68
2021/11/06 03:39:58;;;;;;;88.73;30.07;;;3.90;99.90;;;;;;5114995;27;20047;-68
2021/11/06 03:42:25;;;;;;;92.73;31.53;;;3.90;99.90;;;;;;5114720;27;20431;-68
2021/11/06 03:44:52;;;;;;;91.10;30.03;;;3.80;99.90;;;;;;5114892;27;20495;-68
2021/11/06 03:47:21;;;;;;;85.60;29.40;;;3.70;99.90;;;;;;5113844;27;20066;-68
2021/11/06 03:49:48;;;;;;;93.90;30.73;;;3.70;99.90;;;;;;5115821;27;20063;-68
2021/11/06 03:52:15;;;;;;;105.63;31.30;;;3.60;99.90;;;;;;5114235;27;20111;-68
2021/11/06 03:54:42;;;;;;;95.57;30.77;;;3.60;99.90;;;;;;5113664;27;20051;-68
2021/11/06 03:57:10;;;;;;;100.23;30.63;;;3.60;99.90;;;;;;5114459;27;20055;-68
2021/11/06 03:59:37;;;;;;;96.43;31.20;;;3.60;99.90;;;;;;5114049;27;20055;-68
2021/11/06 04:02:05;;;;;;;90.63;30.80;;;3.50;99.90;;;;;;5114476;27;20073;-68
2021/11/06 04:04:33;;;;;;;85.80;29.23;;;3.50;99.90;;;;;;5115487;27;20071;-68
2021/11/06 04:07:01;;;;;;;82.73;29.67;;;3.50;99.90;;;;;;5115229;27;20503;-68
2021/11/06 04:09:27;;;;;;;102.33;31.47;;;3.50;99.90;;;;;;5113976;27;20457;-69
2021/11/06 04:11:55;;;;;;;100.77;31.67;;;3.40;99.90;;;;;;5114109;27;20051;-68
2021/11/06 04:14:22;;;;;;;97.43;30.80;;;3.40;99.90;;;;;;5113098;27;20047;-69
2021/11/06 04:16:49;;;;;;;100.70;31.10;;;3.40;99.90;;;;;;5113413;27;20050;-68
2021/11/06 04:19:16;;;;;;;114.17;32.23;;;3.50;99.90;;;;;;5114463;27;20111;-68
2021/11/06 04:21:44;;;;;;;109.97;30.83;;;3.50;99.90;;;;;;5115031;27;20094;-68
2021/11/06 04:24:11;;;;;;;115.70;32.50;;;3.60;99.90;;;;;;5114422;27;20055;-68
2021/11/06 04:26:38;;;;;;;102.63;30.13;;;3.50;99.90;;;;;;5112626;27;20144;-68
2021/11/06 04:29:05;;;;;;;103.07;28.97;;;3.50;99.90;;;;;;5114716;27;20055;-68
2021/11/06 04:31:32;;;;;;;112.63;34.03;;;3.40;99.90;;;;;;5114553;27;20058;-69
2021/11/06 04:34:01;;;;;;;107.57;32.13;;;3.30;99.90;;;;;;5113255;27;20043;-69
2021/11/06 04:36:28;;;;;;;96.87;29.90;;;3.30;99.90;;;;;;5112557;27;20138;-68
2021/11/06 04:38:56;;;;;;;98.37;30.77;;;3.30;99.90;;;;;;5114127;27;20429;-70
2021/11/06 04:41:23;;;;;;;106.70;32.53;;;3.30;99.90;;;;;;5114177;27;20051;-69
2021/11/06 04:43:50;;;;;;;110.70;32.97;;;3.30;99.90;;;;;;5113700;27;20059;-69
2021/11/06 04:46:17;;;;;;;123.57;32.80;;;3.30;99.90;;;;;;5115021;27;20047;-72
2021/11/06 04:48:44;;;;;;;122.50;33.83;;;3.30;99.90;;;;;;5113466;27;20084;-71
2021/11/06 04:51:11;;;;;;;117.50;33.80;;;3.20;99.90;;;;;;5114163;27;20051;-71
2021/11/06 04:53:38;;;;;;;132.37;33.70;;;3.40;99.90;;;;;;5113297;27;20054;-72
2021/11/06 04:56:07;;;;;;;109.77;32.63;;;3.40;99.90;;;;;;5111833;27;20051;-71
2021/11/06 04:58:34;;;;;;;121.30;34.47;;;3.40;99.90;;;;;;5112645;27;20055;-71
2021/11/06 05:01:01;;;;;;;122.73;36.00;;;3.50;99.90;;;;;;5113049;27;20055;-72
2021/11/06 05:03:28;;;;;;;115.77;33.40;;;3.50;99.90;;;;;;5112687;27;20572;-71
2021/11/06 05:05:56;;;;;;;115.77;34.57;;;3.60;99.90;;;;;;5112312;27;20270;-71
2021/11/06 05:08:23;;;;;;;139.33;34.73;;;3.60;99.90;;;;;;5112607;27;20108;-72
2021/11/06 05:10:50;;;;;;;125.60;34.77;;;3.60;99.90;;;;;;5113075;27;20043;-72
2021/11/06 05:13:18;;;;;;;138.60;36.73;;;3.60;99.90;;;;;;5112526;27;20050;-72
2021/11/06 05:15:46;;;;;;;124.30;34.93;;;3.70;99.90;;;;;;5111935;27;20050;-72
2021/11/06 05:18:16;;;;;;;139.90;33.83;;;3.70;99.90;;;;;;5112201;27;20047;-72
2021/11/06 05:20:44;;;;;;;131.27;35.03;;;3.80;99.90;;;;;;5112598;27;20094;-72
2021/11/06 05:23:13;;;;;;;121.43;33.30;;;3.80;99.90;;;;;;5112589;27;20066;-72
2021/11/06 05:25:41;;;;;;;114.10;33.03;;;3.90;99.90;;;;;;5111362;27;20146;-71
2021/11/06 05:28:08;;;;;;;118.40;34.20;;;3.90;99.90;;;;;;5113461;27;20096;-72
2021/11/06 05:30:36;;;;;;;149.33;36.30;;;3.80;99.90;;;;;;5113099;27;20480;-75
2021/11/06 05:33:04;;;;;;;146.53;32.93;;;3.70;99.90;;;;;;5112418;27;20043;-72
2021/11/06 05:35:31;;;;;;;150.87;35.80;;;3.60;99.90;;;;;;5115844;27;20059;-72
2021/11/06 05:37:58;;;;;;;129.13;32.53;;;3.60;99.90;;;;;;5113904;27;20047;-72
2021/11/06 05:40:25;;;;;;;162.67;34.67;;;3.80;99.90;;;;;;5111525;27;20082;-72
2021/11/06 05:42:52;;;;;;;171.93;34.63;;;3.70;99.90;;;;;;5112207;27;20476;-72
2021/11/06 05:45:19;;;;;;;146.53;35.33;;;3.60;99.90;;;;;;5110441;27;20058;-71
2021/11/06 05:47:47;;;;;;;183.10;37.20;;;3.60;99.90;;;;;;5113553;27;20428;-72
2021/11/06 05:50:16;;;;;;;158.40;35.17;;;3.60;99.90;;;;;;5111927;27;20104;-73
2021/11/06 05:52:44;;;;;;;158.80;35.57;;;3.60;99.90;;;;;;5111660;27;20070;-72
2021/11/06 05:55:13;;;;;;;135.23;33.97;;;3.60;99.90;;;;;;5111117;27;20051;-73
2021/11/06 05:57:41;;;;;;;135.13;34.70;;;3.60;99.90;;;;;;5112361;27;20054;-74
2021/11/06 06:00:11;;;;;;;139.60;35.53;;;3.60;99.90;;;;;;5111863;27;20104;-72
2021/11/06 06:02:39;;;;;;;119.70;34.13;;;3.70;99.90;;;;;;5111523;27;20047;-72
2021/11/06 06:05:09;;;;;;;135.93;33.83;;;3.60;99.90;;;;;;5111261;27;20051;-73
2021/11/06 06:07:36;;;;;;;105.83;31.47;;;3.60;99.90;;;;;;5110279;27;20503;-72
2021/11/06 06:10:05;;;;;;;149.83;35.17;;;3.70;99.90;;;;;;5112454;27;20104;-73
2021/11/06 06:12:33;;;;;;;100.07;29.30;;;3.50;99.90;;;;;;5111909;27;20047;-72
2021/11/06 06:15:00;;;;;;;141.83;35.63;;;3.70;99.90;;;;;;5111818;27;21520;-72
2021/11/06 06:17:27;;;;;;;141.03;36.47;;;3.60;99.90;;;;;;5111299;27;20051;-71
2021/11/06 06:19:53;;;;;;;203.33;37.97;;;3.70;99.90;;;;;;5111988;27;20495;-73
2021/11/06 06:22:23;;;;;;;123.93;32.10;;;3.50;99.90;;;;;;5111547;27;20386;-71
2021/11/06 06:24:50;;;;;;;134.10;32.97;;;3.50;99.90;;;;;;5111460;27;20393;-73
2021/11/06 06:27:17;;;;;;;130.27;32.97;;;3.50;99.90;;;;;;5111167;27;20100;-71
2021/11/06 06:29:44;;;;;;;135.73;33.80;;;3.50;99.90;;;;;;5111800;27;20571;-72
2021/11/06 06:32:11;;;;;;;108.17;29.23;;;3.60;99.90;;;;;;5111050;27;20051;-72
2021/11/06 06:34:38;;;;;;;117.97;31.27;;;3.50;99.90;;;;;;5110984;27;20119;-72
2021/11/06 06:37:05;;;;;;;126.33;31.70;;;3.50;99.90;;;;;;5111303;27;20072;-71
2021/11/06 06:39:33;;;;;;;110.53;29.67;;;3.50;99.90;;;;;;5112831;28;20107;-73
2021/11/06 06:42:00;;;;;;;123.67;29.80;;;3.50;99.90;;;;;;5113106;28;20422;-73
2021/11/06 06:44:27;;;;;;;128.13;33.20;;;3.50;99.90;;;;;;5113018;28;20043;-72
2021/11/06 06:46:54;;;;;;;174.70;37.30;;;3.60;99.90;;;;;;5114085;27;20043;-73
2021/11/06 06:49:21;;;;;;;129.73;30.13;;;3.50;99.90;;;;;;5115076;28;20059;-72
2021/11/06 06:51:49;;;;;;;142.93;28.83;;;3.40;99.90;;;;;;5115229;28;20079;-71
2021/11/06 06:54:15;;;;;;;189.87;33.37;;;3.30;99.90;;;;;;5114847;27;20039;-72
2021/11/06 06:56:45;;;;;;;124.47;28.50;;;3.30;99.90;;;;;;5114013;28;20095;-70
2021/11/06 06:59:13;;;;;;;118.83;28.97;;;3.30;99.90;;;;;;5114517;27;20059;-70
2021/11/06 07:01:40;;;;;;;100.57;28.00;;;3.30;99.90;;;;;;5118236;27;20081;-70
2021/11/06 07:04:07;;;;;;;119.13;29.80;;;3.40;99.90;;;;;;5118518;27;20059;-70
2021/11/06 07:06:34;;;;;;;108.33;28.13;;;3.40;99.90;;;;;;5118596;27;20070;-69
2021/11/06 07:09:01;;;;;;;142.33;31.07;;;3.40;99.90;;;;;;5118298;27;20055;-69
2021/11/06 07:11:28;;;;;;;165.77;33.93;;;3.50;99.90;;;;;;5118802;27;20062;-69
2021/11/06 07:13:57;;;;;;;250.13;40.13;;;3.40;99.90;;;;;;5118840;27;20087;-68
2021/11/06 07:16:24;;;;;;;222.63;37.60;;;3.50;99.90;;;;;;5118006;27;20050;-69
2021/11/06 07:18:51;;;;;;;266.60;39.17;;;3.50;99.90;;;;;;5118790;27;20043;-69
2021/11/06 07:21:18;;;;;;;291.63;42.40;;;3.50;99.90;;;;;;5119072;27;20054;-70
2021/11/06 07:23:45;;;;;;;291.47;41.40;;;3.50;99.90;;;;;;5118775;27;20043;-72
2021/11/06 07:26:12;;;;;;;221.00;37.37;;;3.50;99.90;;;;;;5114975;27;20435;-70
2021/11/06 07:28:39;;;;;;;278.67;37.83;;;3.60;99.90;;;;;;5115350;27;20453;-73
2021/11/06 07:31:08;;;;;;;284.97;40.07;;;3.50;99.90;;;;;;5114746;27;20551;-70
2021/11/06 07:33:35;;;;;;;248.37;39.37;;;3.70;99.90;;;;;;5114952;27;20082;-70
2021/11/06 07:36:02;;;;;;;182.07;33.40;;;3.80;99.90;;;;;;5114367;27;20086;-70
2021/11/06 07:38:29;;;;;;;260.23;38.33;;;3.80;99.90;;;;;;5114985;27;20096;-69
2021/11/06 07:40:56;;;;;;;197.03;35.83;;;3.80;99.90;;;;;;5116690;27;20050;-70
2021/11/06 07:43:23;;;;;;;196.67;32.20;;;3.90;99.90;;;;;;5116223;27;20106;-70
2021/11/06 07:45:50;;;;;;;190.57;32.43;;;3.90;99.90;;;;;;5117725;27;20542;-70
2021/11/06 07:48:18;;;;;;;178.37;33.47;;;4.00;99.90;;;;;;5118878;27;20468;-68
2021/11/06 07:50:45;;;;;;;213.73;34.73;;;3.90;99.90;;;;;;5118974;27;20108;-70
2021/11/06 07:53:13;;;;;;;206.00;35.50;;;3.90;99.90;;;;;;5117090;27;20534;-69
2021/11/06 07:55:39;;;;;;;162.53;30.70;;;4.00;99.90;;;;;;5117363;27;20131;-69
2021/11/06 07:58:09;;;;;;;126.13;30.80;;;4.00;99.90;;;;;;5118062;27;20047;-69
2021/11/06 08:00:36;;;;;;;146.27;29.17;;;4.10;99.90;;;;;;5118253;27;20061;-70
2021/11/06 08:03:03;;;;;;;164.13;32.03;;;4.00;99.90;;;;;;5118959;27;20047;-70
2021/11/06 08:05:32;;;;;;;169.80;30.83;;;4.10;99.90;;;;;;5117580;27;20086;-71
2021/11/06 08:07:59;;;;;;;149.70;30.20;;;4.10;99.90;;;;;;5118653;27;20135;-69
2021/11/06 08:10:27;;;;;;;137.30;28.53;;;4.10;99.90;;;;;;5119064;27;20139;-69
2021/11/06 08:12:54;;;;;;;115.17;26.97;;;4.10;99.90;;;;;;5117967;27;20055;-69
2021/11/06 08:15:21;;;;;;;127.40;28.20;;;4.10;99.90;;;;;;5118699;27;20515;-70
2021/11/06 08:17:49;;;;;;;120.37;27.20;;;4.00;99.90;;;;;;5119675;27;20760;-70
2021/11/06 08:20:16;;;;;;;123.87;25.53;;;4.10;99.90;;;;;;5118571;27;20126;-70
2021/11/06 08:22:45;;;;;;;106.07;26.70;;;4.10;99.90;;;;;;5118049;27;20086;-70
2021/11/06 08:25:16;;;;;;;98.83;26.10;;;4.00;99.90;;;;;;5118052;27;20054;-70
2021/11/06 08:27:43;;;;;;;98.50;26.87;;;4.10;99.90;;;;;;5118152;27;20736;-68
2021/11/06 08:30:11;;;;;;;88.00;25.67;;;4.20;99.90;;;;;;5118989;27;20043;-69
2021/11/06 08:32:38;;;;;;;90.97;24.03;;;4.20;99.90;;;;;;5118889;27;20473;-69
2021/11/06 08:35:08;;;;;;;83.23;24.90;;;4.40;99.90;;;;;;5118225;27;20131;-72
2021/11/06 08:37:35;;;;;;;76.23;24.07;;;4.50;99.90;;;;;;5117663;27;20380;-70
2021/11/06 08:40:04;;;;;;;77.80;23.73;;;4.40;99.90;;;;;;5118356;27;20080;-70
2021/11/06 08:42:32;;;;;;;83.97;25.43;;;4.60;99.90;;;;;;5117369;27;20503;-70
2021/11/06 08:44:59;;;;;;;76.17;24.03;;;4.70;99.90;;;;;;5119168;27;20100;-70
2021/11/06 08:47:26;;;;;;;72.83;24.47;;;4.80;99.90;;;;;;5118113;27;20128;-70
2021/11/06 08:49:53;;;;;;;70.60;23.63;;;5.00;99.90;;;;;;5119386;27;20047;-70
2021/11/06 08:52:20;;;;;;;62.75;22.17;;;5.20;99.90;;;;;;5116308;27;20105;-69
2021/11/06 08:54:48;;;;;;;67.18;22.42;;;5.10;99.90;;;;;;5112940;27;20128;-69
2021/11/06 08:57:18;;;;;;;66.35;22.73;;;5.00;99.90;;;;;;5112667;27;20059;-69
2021/11/06 08:59:48;;;;;;;66.15;22.95;;;5.00;99.90;;;;;;5112584;27;20116;-69
2021/11/06 09:02:15;;;;;;;54.25;22.05;;;5.00;99.90;;;;;;5112491;27;20108;-69
2021/11/06 09:04:42;;;;;;;56.13;21.30;;;5.10;99.90;;;;;;5113938;27;20043;-69
2021/11/06 09:07:09;;;;;;;58.78;22.05;;;5.10;99.90;;;;;;5116687;27;20339;-69
2021/11/06 09:09:36;;;;;;;54.47;21.15;;;5.20;99.90;;;;;;5116766;27;20449;-69
2021/11/06 09:12:04;;;;;;;58.17;21.13;;;5.00;99.90;;;;;;5117750;27;21422;-72
2021/11/06 09:14:33;;;;;;;56.97;22.35;;;5.00;99.90;;;;;;5117877;27;20100;-69
2021/11/06 09:17:00;;;;;;;58.95;22.33;;;5.00;99.90;;;;;;5117488;27;20088;-69
2021/11/06 09:19:27;;;;;;;63.60;22.02;;;4.80;99.90;;;;;;5116919;27;20054;-69
2021/11/06 09:21:54;;;;;;;52.90;20.05;;;4.90;99.90;;;;;;5117567;27;20100;-69
2021/11/06 09:24:21;;;;;;;51.80;21.17;;;5.00;99.90;;;;;;5116811;27;20047;-69
2021/11/06 09:26:49;;;;;;;61.13;22.42;;;5.10;99.90;;;;;;5115648;27;20047;-69
2021/11/06 09:29:17;;;;;;;49.78;20.73;;;5.10;99.90;;;;;;5117797;27;20092;-69
2021/11/06 09:31:46;;;;;;;56.78;20.48;;;5.10;99.90;;;;;;5117109;27;20039;-69
2021/11/06 09:34:13;;;;;;;50.35;19.95;;;5.20;99.90;;;;;;5117389;27;20075;-70
2021/11/06 09:36:41;;;;;;;46.50;19.83;;;5.20;99.90;;;;;;5115988;27;20047;-70
2021/11/06 09:39:11;;;;;;;53.45;20.25;;;5.10;99.90;;;;;;5117246;27;20495;-71
2021/11/06 09:41:37;;;;;;;51.75;20.15;;;5.20;99.90;;;;;;5117884;27;20074;-70
2021/11/06 09:44:05;;;;;;;56.83;22.45;;;5.20;99.90;;;;;;5116473;27;20115;-70
2021/11/06 09:46:32;;;;;;;50.35;20.75;;;5.20;99.90;;;;;;5116163;27;20083;-70
2021/11/06 09:49:01;;;;;;;48.00;22.08;;;5.40;99.90;;;;;;5116187;27;20051;-70
2021/11/06 09:51:29;;;;;;;62.20;22.73;;;5.40;99.90;;;;;;5116660;27;20134;-70
2021/11/06 09:53:56;;;;;;;54.72;22.70;;;5.40;99.90;;;;;;5115816;27;20092;-70
2021/11/06 09:56:26;;;;;;;52.30;21.67;;;5.40;99.90;;;;;;5115725;27;20051;-70
2021/11/06 09:59:00;;;;;;;51.50;22.75;;;5.50;99.90;;;;;;5116700;27;20059;-69
2021/11/06 10:01:28;;;;;;;53.10;20.92;;;5.40;99.90;;;;;;5115523;27;20069;-69
2021/11/06 10:03:55;;;;;;;52.10;19.92;;;5.40;99.90;;;;;;5116923;27;20047;-69
2021/11/06 10:06:26;;;;;;;56.05;22.42;;;5.40;99.90;;;;;;5115651;27;20103;-69
2021/11/06 10:08:54;;;;;;;53.60;20.48;;;5.50;99.90;;;;;;5117559;27;20487;-69
2021/11/06 10:11:23;;;;;;;47.53;20.60;;;5.50;99.90;;;;;;5116454;27;20107;-73
2021/11/06 10:13:54;;;;;;;53.13;22.75;;;5.40;99.90;;;;;;5116215;27;20047;-69
2021/11/06 10:16:22;;;;;;;51.15;21.23;;;5.40;99.90;;;;;;5115638;27;20083;-69
2021/11/06 10:18:49;;;;;;;46.28;19.30;;;5.40;99.90;;;;;;5115297;27;21439;-69
2021/11/06 10:21:16;;;;;;;49.03;20.95;;;5.50;99.90;;;;;;5115848;27;20419;-69
2021/11/06 10:23:45;;;;;;;48.05;20.63;;;5.60;99.90;;;;;;5113167;27;20171;-71
2021/11/06 10:26:15;;;;;;;51.45;21.55;;;5.60;99.90;;;;;;5111934;27;20495;-70
2021/11/06 10:28:42;;;;;;;50.13;21.10;;;5.60;99.90;;;;;;5112953;27;20084;-69
2021/11/06 10:31:10;;;;;;;50.58;21.17;;;5.80;99.90;;;;;;5111719;27;20046;-69
2021/11/06 10:33:45;;;;;;;45.58;18.88;;;5.90;99.90;;;;;;5115019;27;20622;-69
2021/11/06 10:36:21;;;;;;;45.20;20.38;;;5.90;99.90;;;;;;5115453;27;20050;-69
2021/11/06 10:39:09;;;;;;;45.05;19.88;;;6.00;99.90;;;;;;5115982;27;20055;-69
2021/11/06 10:41:38;;;;;;;42.08;19.02;;;6.10;99.90;;;;;;5115503;28;20057;-70
2021/11/06 10:44:05;;;;;;;43.63;19.67;;;6.20;99.90;;;;;;5115894;27;20085;-70
2021/11/06 10:46:33;;;;;;;37.75;18.05;;;6.40;99.90;;;;;;5113974;28;20078;-70
2021/11/06 10:49:02;;;;;;;38.70;19.67;;;6.50;99.90;;;;;;5112938;28;20107;-70
2021/11/06 10:51:29;;;;;;;40.58;19.60;;;6.60;99.90;;;;;;5112145;28;20063;-70
2021/11/06 10:53:58;;;;;;;40.88;19.25;;;6.40;99.90;;;;;;5114687;28;20119;-70
2021/11/06 10:56:34;;;;;;;41.58;19.40;;;6.10;99.90;;;;;;5113183;28;20107;-70
2021/11/06 10:59:05;;;;;;;41.72;19.88;;;6.00;99.90;;;;;;5114512;28;20086;-70
2021/11/06 11:01:33;;;;;;;45.25;20.92;;;6.30;99.90;;;;;;5113200;28;20059;-70
2021/11/06 11:04:02;;;;;;;41.78;18.80;;;6.40;99.90;;;;;;5113619;28;20086;-70
2021/11/06 11:06:37;;;;;;;44.30;19.92;;;6.30;99.90;;;;;;5113783;28;20808;-70
2021/11/06 11:09:08;;;;;;;42.08;20.13;;;6.40;99.90;;;;;;5113968;28;20138;-69
2021/11/06 11:11:38;;;;;;;45.22;19.75;;;6.60;99.90;;;;;;5111137;28;20572;-69
2021/11/06 11:14:07;;;;;;;43.40;21.40;;;6.80;99.90;;;;;;5110495;28;20062;-72
2021/11/06 11:16:36;;;;;;;40.03;18.90;;;6.60;99.90;;;;;;5110130;28;20043;-69
2021/11/06 11:19:06;;;;;;;44.80;20.70;;;6.70;99.90;;;;;;5112074;28;20059;-69
2021/11/06 11:21:39;;;;;;;47.13;20.20;;;6.90;99.90;;;;;;5110274;28;20047;-70
2021/11/06 11:24:08;;;;;;;40.65;19.23;;;6.90;99.90;;;;;;5112258;28;20138;-70
2021/11/06 11:26:39;;;;;;;48.67;22.20;;;6.50;99.90;;;;;;5115189;28;20051;-69
2021/11/06 11:29:07;;;;;;;52.47;24.95;;;6.50;99.90;;;;;;5116657;28;20108;-69
2021/11/06 11:31:36;;;;;;;49.92;21.35;;;6.50;99.90;;;;;;5115126;28;20083;-72
2021/11/06 11:34:08;;;;;;;57.80;25.02;;;6.40;99.90;;;;;;5114642;27;20492;-71
2021/11/06 11:36:35;;;;;;;48.80;22.10;;;6.40;99.90;;;;;;5111557;28;20051;-73
2021/11/06 11:39:07;;;;;;;53.05;23.70;;;6.30;99.90;;;;;;5112944;28;20059;-72
2021/11/06 11:42:15;;;;;;;49.03;23.90;;;6.30;99.90;;;;;;5110618;28;20073;-73
2021/11/06 11:45:27;;;;;;;51.05;21.98;;;6.40;99.90;;;;;;5115849;27;20047;-71
2021/11/06 11:47:59;;;;;;;50.85;22.98;;;6.40;99.90;;;;;;5118726;27;20529;-72
2021/11/06 11:50:31;;;;;;;49.80;23.45;;;6.50;99.90;;;;;;5119493;27;20055;-71
2021/11/06 11:52:59;;;;;;;48.95;21.90;;;6.60;99.90;;;;;;5119228;27;20065;-72
2021/11/06 11:55:40;;;;;;;51.72;20.73;;;6.60;99.90;;;;;;5121915;27;20460;-71
2021/11/06 11:58:12;;;;;;;51.45;23.55;;;6.50;99.90;;;;;;5118673;27;20109;-72
2021/11/06 12:00:45;;;;;;;49.85;21.63;;;6.50;99.90;;;;;;5118867;27;20039;-72
2021/11/06 12:03:13;;;;;;;50.83;21.05;;;6.60;99.90;;;;;;5119488;27;20051;-71
2021/11/06 12:05:43;;;;;;;50.13;19.73;;;6.70;99.90;;;;;;5118598;27;20104;-71
2021/11/06 12:08:34;;;;;;;50.47;20.23;;;6.60;99.90;;;;;;5118110;27;20127;-72
2021/11/06 12:11:30;;;;;;;47.78;20.75;;;6.60;99.90;;;;;;5115027;27;20408;-71
2021/11/06 12:14:00;;;;;;;44.45;20.60;;;6.70;99.90;;;;;;5084631;27;20066;-71
2021/11/06 12:16:44;;;;;;;49.53;21.45;;;6.50;99.90;;;;;;5118699;27;20095;-73
2021/11/06 12:19:12;;;;;;;50.22;21.48;;;6.60;99.90;;;;;;5119262;27;20054;-72
2021/11/06 12:21:44;;;;;;;46.38;21.08;;;6.60;99.90;;;;;;5118642;27;20055;-73
2021/11/06 12:24:23;;;;;;;43.33;20.10;;;6.70;99.90;;;;;;5119195;27;20423;-72
2021/11/06 12:26:53;;;;;;;50.28;20.73;;;6.80;99.90;;;;;;5117956;27;20513;-76
2021/11/06 12:29:28;;;;;;;44.40;19.85;;;6.90;99.90;;;;;;5118118;27;20419;-71
2021/11/06 12:31:57;;;;;;;40.42;18.88;;;6.90;99.90;;;;;;5117724;27;20803;-73
2021/11/06 12:34:34;;;;;;;41.42;20.20;;;6.90;99.90;;;;;;5116739;27;20135;-72
2021/11/06 12:37:03;;;;;;;41.97;18.75;;;6.80;99.90;;;;;;5117305;27;20047;-71
2021/11/06 12:39:55;;;;;;;42.05;19.05;;;6.70;99.90;;;;;;5118004;27;20063;-71